createdAt,value
2017-09-19T00:02:03.085Z,5.20
2017-09-19T00:04:31.423Z,4.57
2017-09-19T00:07:00.627Z,4.30
2017-09-19T00:09:31.012Z,5.43
2017-09-19T00:12:01.238Z,4.70
2017-09-19T00:14:30.514Z,4.30
2017-09-19T00:17:02.614Z,4.43
2017-09-19T00:19:32.805Z,4.40
2017-09-19T00:22:04.273Z,4.87
2017-09-19T00:24:35.261Z,4.23
2017-09-19T00:27:07.460Z,3.70
2017-09-19T00:29:35.909Z,4.60
2017-09-19T00:32:04.240Z,4.10
2017-09-19T00:34:36.329Z,4.80
2017-09-19T00:37:05.612Z,4.90
2017-09-19T00:39:34.011Z,4.73
2017-09-19T00:42:14.928Z,4.67
2017-09-19T00:44:46.758Z,3.37
2017-09-19T00:47:15.098Z,5.10
2017-09-19T00:50:11.558Z,4.60
2017-09-19T00:52:41.573Z,4.10
2017-09-19T00:55:12.356Z,4.13
2017-09-19T00:57:40.900Z,4.67
2017-09-19T01:00:11.099Z,3.97
2017-09-19T01:02:40.415Z,4.00
2017-09-19T01:05:09.701Z,4.30
2017-09-19T01:07:38.098Z,4.20
2017-09-19T01:10:08.620Z,4.43
2017-09-19T01:12:41.928Z,4.50
2017-09-19T01:15:10.270Z,3.90
2017-09-19T01:17:38.661Z,3.70
2017-09-19T01:20:07.983Z,3.60
2017-09-19T01:22:37.071Z,4.13
2017-09-19T01:25:06.850Z,4.17
2017-09-19T01:27:36.501Z,3.83
2017-09-19T01:30:09.677Z,4.10
2017-09-19T01:32:38.185Z,3.83
2017-09-19T01:35:11.540Z,3.20
2017-09-19T01:37:43.256Z,3.77
2017-09-19T01:40:19.086Z,3.67
2017-09-19T01:42:47.402Z,4.00
2017-09-19T01:45:15.735Z,3.53
2017-09-19T01:48:12.506Z,3.80
2017-09-19T01:50:40.833Z,3.47
2017-09-19T01:53:13.445Z,3.90
2017-09-19T01:55:46.110Z,3.50
2017-09-19T01:58:15.725Z,3.97
2017-09-19T02:00:44.115Z,3.40
2017-09-19T02:03:22.463Z,3.10
2017-09-19T02:05:51.924Z,3.30
2017-09-19T02:08:20.289Z,3.63
2017-09-19T02:10:54.536Z,2.97
2017-09-19T02:13:29.059Z,2.97
2017-09-19T02:16:00.342Z,3.37
2017-09-19T02:18:34.984Z,3.50
2017-09-19T02:21:08.904Z,3.43
2017-09-19T02:23:40.687Z,3.63
2017-09-19T02:26:09.095Z,3.33
2017-09-19T02:28:42.696Z,3.80
2017-09-19T02:31:12.036Z,3.60
2017-09-19T02:33:43.478Z,4.03
2017-09-19T02:36:14.303Z,3.67
2017-09-19T02:38:42.646Z,3.73
2017-09-19T02:41:17.476Z,3.57
2017-09-19T02:43:47.699Z,3.13
2017-09-19T02:46:18.260Z,4.67
2017-09-19T02:48:52.448Z,3.27
2017-09-19T02:51:20.845Z,3.40
2017-09-19T02:53:51.068Z,4.00
2017-09-19T02:56:22.485Z,3.90
2017-09-19T02:59:07.401Z,3.57
2017-09-19T03:01:39.350Z,3.30
2017-09-19T03:04:08.849Z,3.57
2017-09-19T03:06:43.026Z,3.77
2017-09-19T03:09:11.466Z,3.80
2017-09-19T03:11:47.449Z,4.23
2017-09-19T03:14:22.608Z,3.57
2017-09-19T03:16:52.215Z,3.53
2017-09-19T03:19:20.609Z,3.83
2017-09-19T03:21:49.932Z,3.20
2017-09-19T03:24:22.623Z,4.40
2017-09-19T03:26:51.924Z,4.40
2017-09-19T03:29:27.645Z,3.30
2017-09-19T03:31:56.951Z,3.70
2017-09-19T03:34:25.361Z,3.60
2017-09-19T03:37:01.083Z,3.97
2017-09-19T03:39:29.764Z,3.47
2017-09-19T03:41:58.174Z,4.70
2017-09-19T03:44:27.272Z,4.03
2017-09-19T03:46:56.488Z,3.67
2017-09-19T03:49:28.232Z,4.60
2017-09-19T03:52:04.087Z,3.97
2017-09-19T03:54:34.506Z,4.27
2017-09-19T03:57:03.972Z,4.00
2017-09-19T03:59:32.491Z,4.00
2017-09-19T04:02:00.875Z,3.70
2017-09-19T04:04:31.433Z,3.90
2017-09-19T04:06:59.788Z,4.10
2017-09-19T04:09:30.796Z,4.07
2017-09-19T04:12:00.236Z,4.93
2017-09-19T04:14:29.772Z,4.40
2017-09-19T04:16:58.223Z,4.70
2017-09-19T04:19:27.520Z,4.00
2017-09-19T04:21:56.860Z,6.40
2017-09-19T04:24:31.007Z,5.93
2017-09-19T04:26:59.446Z,4.10
2017-09-19T04:29:28.717Z,4.47
2017-09-19T04:31:58.441Z,5.83
2017-09-19T04:34:28.562Z,4.87
2017-09-19T04:36:59.074Z,4.20
2017-09-19T04:39:28.397Z,4.60
2017-09-19T04:42:01.073Z,4.87
2017-09-19T04:44:32.213Z,3.80
2017-09-19T04:47:02.464Z,4.40
2017-09-19T04:49:39.373Z,5.37
2017-09-19T04:52:10.675Z,4.70
2017-09-19T04:54:39.888Z,4.70
2017-09-19T04:57:08.232Z,4.57
2017-09-19T04:59:37.570Z,6.80
2017-09-19T05:02:05.925Z,5.23
2017-09-19T05:04:34.344Z,5.63
2017-09-19T05:07:02.679Z,4.97
2017-09-19T05:09:31.012Z,4.80
2017-09-19T05:11:59.341Z,4.67
2017-09-19T05:14:27.661Z,5.27
2017-09-19T05:16:55.997Z,5.10
2017-09-19T05:19:24.292Z,5.00
2017-09-19T05:21:53.384Z,5.00
2017-09-19T05:24:22.061Z,4.90
2017-09-19T05:26:50.412Z,4.70
2017-09-19T05:29:18.726Z,5.70
2017-09-19T05:31:47.823Z,5.50
2017-09-19T05:34:16.936Z,5.20
2017-09-19T05:36:45.251Z,5.80
2017-09-19T05:39:13.588Z,6.03
2017-09-19T05:41:41.913Z,6.20
2017-09-19T05:44:10.248Z,6.50
2017-09-19T05:46:39.349Z,5.90
2017-09-19T05:49:07.658Z,6.37
2017-09-19T05:51:35.996Z,6.17
2017-09-19T05:54:05.094Z,6.43
2017-09-19T05:56:33.419Z,7.03
2017-09-19T05:59:01.756Z,6.33
2017-09-19T06:01:30.853Z,7.13
2017-09-19T06:03:59.178Z,7.30
2017-09-19T06:06:27.522Z,7.30
2017-09-19T06:12:09.220Z,6.43
2017-09-19T06:14:38.391Z,7.90
2017-09-19T06:17:06.738Z,7.57
2017-09-19T06:19:35.590Z,7.90
2017-09-19T06:22:03.919Z,7.60
2017-09-19T06:24:32.246Z,7.57
2017-09-19T06:27:01.343Z,6.97
2017-09-19T06:29:30.432Z,7.50
2017-09-19T06:31:58.775Z,7.10
2017-09-19T06:34:27.092Z,7.50
2017-09-19T06:36:55.426Z,8.33
2017-09-19T06:39:23.760Z,6.47
2017-09-19T06:41:52.873Z,7.30
2017-09-19T06:44:21.201Z,6.40
2017-09-19T06:46:50.316Z,6.90
2017-09-19T06:49:18.660Z,7.30
2017-09-19T06:51:47.003Z,7.13
2017-09-19T06:54:15.377Z,7.60
2017-09-19T06:56:43.690Z,7.23
2017-09-19T06:59:12.036Z,6.27
2017-09-19T07:01:40.385Z,5.80
2017-09-19T07:04:08.732Z,5.80
2017-09-19T07:06:37.085Z,5.83
2017-09-19T07:09:05.482Z,5.97
2017-09-19T07:11:33.804Z,6.00
2017-09-19T07:14:02.164Z,5.57
2017-09-19T07:16:30.514Z,6.03
2017-09-19T07:18:58.846Z,5.93
2017-09-19T07:21:27.211Z,5.40
2017-09-19T07:23:55.555Z,5.40
2017-09-19T07:26:23.889Z,5.43
2017-09-19T07:28:52.973Z,5.03
2017-09-19T07:31:21.316Z,4.20
2017-09-19T07:33:49.645Z,5.20
2017-09-19T07:36:18.049Z,5.07
2017-09-19T07:38:46.392Z,5.27
2017-09-19T07:41:14.742Z,3.60
2017-09-19T07:43:43.077Z,3.97
2017-09-19T07:46:11.403Z,3.67
2017-09-19T07:48:39.754Z,3.30
2017-09-19T07:51:08.076Z,2.87
2017-09-19T07:53:36.441Z,2.70
2017-09-19T07:56:04.768Z,2.33
2017-09-19T07:58:33.874Z,2.57
2017-09-19T08:01:02.248Z,2.30
2017-09-19T08:03:30.563Z,3.87
2017-09-19T08:05:58.908Z,2.00
2017-09-19T08:08:28.015Z,2.10
2017-09-19T08:10:56.355Z,2.00
2017-09-19T08:13:24.717Z,1.80
2017-09-19T08:15:53.073Z,2.00
2017-09-19T08:18:21.443Z,1.80
2017-09-19T08:20:49.786Z,1.80
2017-09-19T08:23:18.903Z,1.73
2017-09-19T08:25:47.242Z,1.77
2017-09-19T08:28:15.581Z,1.50
2017-09-19T08:30:43.921Z,1.77
2017-09-19T08:33:13.065Z,1.43
2017-09-19T08:35:41.405Z,1.40
2017-09-19T08:38:10.492Z,1.70
2017-09-19T08:40:38.842Z,1.40
2017-09-19T08:43:07.169Z,1.37
2017-09-19T08:45:35.509Z,1.53
2017-09-19T08:48:03.818Z,1.60
2017-09-19T08:50:32.909Z,1.40
2017-09-19T08:53:01.269Z,1.33
2017-09-19T08:55:29.603Z,1.00
2017-09-19T08:57:57.952Z,1.63
2017-09-19T09:00:27.044Z,1.47
2017-09-19T09:02:56.147Z,1.50
2017-09-19T09:05:24.455Z,1.27
2017-09-19T09:07:52.789Z,1.67
2017-09-19T09:10:21.136Z,1.60
2017-09-19T09:12:49.445Z,1.30
2017-09-19T09:15:17.779Z,1.40
2017-09-19T09:17:46.100Z,1.53
2017-09-19T09:20:14.455Z,1.40
2017-09-19T09:22:42.806Z,1.37
2017-09-19T09:25:11.118Z,1.70
2017-09-19T09:27:39.462Z,1.70
2017-09-19T09:30:07.796Z,1.40
2017-09-19T09:32:36.134Z,1.63
2017-09-19T09:35:05.238Z,1.40
2017-09-19T09:37:33.545Z,1.63
2017-09-19T09:40:01.884Z,1.57
2017-09-19T09:42:30.208Z,1.40
2017-09-19T09:44:58.547Z,1.60
2017-09-19T09:47:26.887Z,1.53
2017-09-19T09:49:55.975Z,1.50
2017-09-19T09:52:25.106Z,1.80
2017-09-19T09:54:53.445Z,1.20
2017-09-19T09:57:22.568Z,1.37
2017-09-19T09:59:57.032Z,1.20
2017-09-19T10:02:25.381Z,1.00
2017-09-19T10:04:53.742Z,1.60
2017-09-19T10:07:22.855Z,1.10
2017-09-19T10:09:51.217Z,1.07
2017-09-19T10:12:19.543Z,1.20
2017-09-19T10:14:47.946Z,1.50
2017-09-19T10:17:16.304Z,1.30
2017-09-19T10:19:44.623Z,1.20
2017-09-19T10:22:13.744Z,1.53
2017-09-19T10:24:42.066Z,1.40
2017-09-19T10:27:10.887Z,1.47
2017-09-19T10:29:39.216Z,1.30
2017-09-19T10:32:07.534Z,1.47
2017-09-19T10:34:36.535Z,1.30
2017-09-19T10:37:04.860Z,1.20
2017-09-19T10:39:33.203Z,1.80
2017-09-19T10:42:02.298Z,1.20
2017-09-19T10:44:30.637Z,1.30
2017-09-19T10:46:58.983Z,1.43
2017-09-19T10:49:28.153Z,1.40
2017-09-19T10:51:56.505Z,1.60
2017-09-19T10:54:24.829Z,1.60
2017-09-19T10:56:53.164Z,1.50
2017-09-19T10:59:21.493Z,1.10
2017-09-19T11:01:49.841Z,1.10
2017-09-19T11:04:18.178Z,1.13
2017-09-19T11:06:46.555Z,1.47
2017-09-19T11:09:14.902Z,1.23
2017-09-19T11:11:43.984Z,1.30
2017-09-19T11:14:13.084Z,1.70
2017-09-19T11:16:41.407Z,1.70
2017-09-19T11:19:10.834Z,1.20
2017-09-19T11:21:39.166Z,1.23
2017-09-19T11:24:07.482Z,1.43
2017-09-19T11:26:35.817Z,1.53
2017-09-19T11:29:04.908Z,1.57
2017-09-19T11:31:33.242Z,1.23
2017-09-19T11:34:01.586Z,1.17
2017-09-19T11:36:29.951Z,1.50
2017-09-19T11:38:59.056Z,1.43
2017-09-19T11:41:27.383Z,1.60
2017-09-19T11:43:55.888Z,1.30
2017-09-19T11:46:24.216Z,1.40
2017-09-19T11:48:52.554Z,1.30
2017-09-19T11:51:20.881Z,1.30
2017-09-19T11:53:49.614Z,2.47
2017-09-19T11:56:17.944Z,1.00
2017-09-19T11:58:46.259Z,1.00
2017-09-19T12:01:14.589Z,1.40
2017-09-19T12:03:42.895Z,1.00
2017-09-19T12:06:11.226Z,1.20
2017-09-19T12:08:39.552Z,1.37
2017-09-19T12:11:07.932Z,1.20
2017-09-19T12:13:36.283Z,1.20
2017-09-19T12:16:05.578Z,1.13
2017-09-19T12:18:33.915Z,1.23
2017-09-19T12:21:02.263Z,1.10
2017-09-19T12:23:30.608Z,1.20
2017-09-19T12:25:59.729Z,1.23
2017-09-19T12:28:28.070Z,1.40
2017-09-19T12:30:57.156Z,0.97
2017-09-19T12:33:25.484Z,1.10
2017-09-19T12:35:53.829Z,1.10
2017-09-19T12:38:22.921Z,1.33
2017-09-19T12:40:51.266Z,1.33
2017-09-19T12:43:19.616Z,1.20
2017-09-19T12:45:48.388Z,1.10
2017-09-19T12:48:16.711Z,1.00
2017-09-19T12:50:45.049Z,1.00
2017-09-19T12:53:13.383Z,1.23
2017-09-19T12:55:41.725Z,1.60
2017-09-19T12:58:10.071Z,1.30
2017-09-19T13:00:38.420Z,1.00
2017-09-19T13:03:07.135Z,1.27
2017-09-19T13:05:36.241Z,1.10
2017-09-19T13:08:04.564Z,1.10
2017-09-19T13:10:32.896Z,1.20
2017-09-19T13:13:02.042Z,1.07
2017-09-19T13:15:30.401Z,1.43
2017-09-19T13:18:00.638Z,1.33
2017-09-19T13:20:29.001Z,1.23
2017-09-19T13:22:57.365Z,1.40
2017-09-19T13:25:25.686Z,1.20
2017-09-19T13:27:54.028Z,1.10
2017-09-19T13:30:22.340Z,1.33
2017-09-19T13:33:08.206Z,1.40
2017-09-19T13:35:37.694Z,1.30
2017-09-19T13:38:06.118Z,1.33
2017-09-19T13:40:35.367Z,1.00
2017-09-19T13:43:04.765Z,1.20
2017-09-19T13:45:33.083Z,1.30
2017-09-19T13:48:01.417Z,1.03
2017-09-19T13:50:32.596Z,1.20
2017-09-19T13:53:01.644Z,1.30
2017-09-19T13:55:30.008Z,1.30
2017-09-19T13:57:58.332Z,1.50
2017-09-19T14:00:28.956Z,1.40
2017-09-19T14:03:01.827Z,1.50
2017-09-19T14:05:30.485Z,5.80
2017-09-19T14:08:00.752Z,1.30
2017-09-19T14:10:29.878Z,1.67
2017-09-19T14:12:59.711Z,1.30
2017-09-19T14:15:28.034Z,1.57
2017-09-19T14:17:58.271Z,1.60
2017-09-19T14:20:29.391Z,1.60
2017-09-19T14:22:58.201Z,1.93
2017-09-19T14:25:27.703Z,1.17
2017-09-19T14:27:56.997Z,1.40
2017-09-19T14:30:26.327Z,5.77
2017-09-19T14:32:55.616Z,2.47
2017-09-19T14:35:25.811Z,1.70
2017-09-19T14:37:54.209Z,1.97
2017-09-19T14:40:24.452Z,1.73
2017-09-19T14:42:52.813Z,2.00
2017-09-19T14:45:21.207Z,1.43
2017-09-19T14:47:49.587Z,1.50
2017-09-19T14:50:18.867Z,2.17
2017-09-19T14:52:47.293Z,2.13
2017-09-19T14:55:15.631Z,1.73
2017-09-19T14:57:45.254Z,2.13
2017-09-19T15:00:17.931Z,1.90
2017-09-19T15:02:47.513Z,1.73
2017-09-19T15:05:16.629Z,1.57
2017-09-19T15:07:46.752Z,1.30
2017-09-19T15:10:16.071Z,1.37
2017-09-19T15:12:44.436Z,1.60
2017-09-19T15:15:12.819Z,1.87
2017-09-19T15:17:42.103Z,1.60
2017-09-19T15:20:10.536Z,1.77
2017-09-19T15:22:40.298Z,1.80
2017-09-19T15:25:08.824Z,1.43
2017-09-19T15:27:37.202Z,1.63
2017-09-19T15:30:05.557Z,1.60
2017-09-19T15:32:34.887Z,1.60
2017-09-19T15:35:03.243Z,1.50
2017-09-19T15:37:32.563Z,1.60
2017-09-19T15:40:00.921Z,1.90
2017-09-19T15:42:31.166Z,1.53
2017-09-19T15:44:59.519Z,1.70
2017-09-19T15:47:30.949Z,1.80
2017-09-19T15:49:59.361Z,1.63
2017-09-19T15:52:28.673Z,1.70
2017-09-19T15:54:57.065Z,1.50
2017-09-19T15:57:25.403Z,1.67
2017-09-19T15:59:53.815Z,2.00
2017-09-19T16:02:22.178Z,1.40
2017-09-19T16:04:56.198Z,1.50
2017-09-19T16:07:27.394Z,1.57
2017-09-19T16:09:55.928Z,1.63
2017-09-19T16:12:25.919Z,1.90
2017-09-19T16:14:56.357Z,1.90
2017-09-19T16:17:28.749Z,1.83
2017-09-19T16:19:59.889Z,1.90
2017-09-19T16:22:29.521Z,1.90
2017-09-19T16:25:03.449Z,1.70
2017-09-19T16:27:33.971Z,1.90
2017-09-19T16:30:02.335Z,1.90
2017-09-19T16:32:30.750Z,2.10
2017-09-19T16:34:59.115Z,2.20
2017-09-19T16:37:28.374Z,2.47
2017-09-19T16:40:02.304Z,1.80
2017-09-19T16:42:31.553Z,2.17
2017-09-19T16:45:01.287Z,1.60
2017-09-19T16:47:30.047Z,1.83
2017-09-19T16:49:59.906Z,2.30
2017-09-19T16:52:29.166Z,2.10
2017-09-19T16:54:57.487Z,8.13
2017-09-19T16:57:28.950Z,2.20
2017-09-19T16:59:57.314Z,2.00
2017-09-19T17:02:28.508Z,2.30
2017-09-19T17:04:56.866Z,2.30
2017-09-19T17:07:25.254Z,3.10
2017-09-19T17:09:55.757Z,3.10
2017-09-19T17:12:25.360Z,3.87
2017-09-19T17:14:54.674Z,2.73
2017-09-19T17:17:23.049Z,2.40
2017-09-19T17:19:52.385Z,3.30
2017-09-19T17:22:20.703Z,3.33
2017-09-19T17:24:49.818Z,3.20
2017-09-19T17:27:20.872Z,3.00
2017-09-19T17:29:50.868Z,3.80
2017-09-19T17:32:25.821Z,3.87
2017-09-19T17:35:01.370Z,3.17
2017-09-19T17:37:33.809Z,3.20
2017-09-19T17:40:03.379Z,3.80
2017-09-19T17:42:32.482Z,3.70
2017-09-19T17:45:01.037Z,3.23
2017-09-19T17:47:29.431Z,3.87
2017-09-19T17:49:57.779Z,3.60
2017-09-19T17:52:27.164Z,3.60
2017-09-19T17:54:57.687Z,3.93
2017-09-19T17:57:28.422Z,4.00
2017-09-19T18:00:03.551Z,4.50
2017-09-19T18:02:32.952Z,4.73
2017-09-19T18:05:01.322Z,4.57
2017-09-19T18:07:30.597Z,4.30
2017-09-19T18:09:58.991Z,5.23
2017-09-19T18:12:27.367Z,4.90
2017-09-19T18:14:55.731Z,4.50
2017-09-19T18:17:25.074Z,4.27
2017-09-19T18:19:55.962Z,5.30
2017-09-19T18:22:24.645Z,4.27
2017-09-19T18:24:55.094Z,5.30
2017-09-19T18:27:23.464Z,4.80
2017-09-19T18:29:51.843Z,4.97
2017-09-19T18:32:21.192Z,5.10
2017-09-19T18:34:49.557Z,5.00
2017-09-19T18:37:18.464Z,5.47
2017-09-19T18:39:48.447Z,4.73
2017-09-19T18:42:20.037Z,4.93
2017-09-19T18:44:49.706Z,8.00
2017-09-19T18:47:18.894Z,5.10
2017-09-19T18:49:48.943Z,4.10
2017-09-19T18:52:17.388Z,3.70
2017-09-19T18:54:46.737Z,4.60
2017-09-19T18:57:15.116Z,4.00
2017-09-19T18:59:48.680Z,5.27
2017-09-19T19:02:18.009Z,5.40
2017-09-19T19:04:48.561Z,5.30
2017-09-19T19:07:22.752Z,5.13
2017-09-19T19:09:54.864Z,6.70
2017-09-19T19:12:24.512Z,6.00
2017-09-19T19:14:53.719Z,5.43
2017-09-19T19:17:22.181Z,4.87
2017-09-19T19:19:52.384Z,5.63
2017-09-19T19:22:21.958Z,4.83
2017-09-19T19:24:51.637Z,5.10
2017-09-19T19:27:20.544Z,4.60
2017-09-19T19:29:49.578Z,4.93
2017-09-19T19:32:18.600Z,5.10
2017-09-19T19:34:48.290Z,4.80
2017-09-19T19:37:19.363Z,4.97
2017-09-19T19:40:00.532Z,5.20
2017-09-19T19:42:30.254Z,5.57
2017-09-19T19:44:59.978Z,5.40
2017-09-19T19:47:28.794Z,6.03
2017-09-19T19:49:57.216Z,5.73
2017-09-19T19:52:25.637Z,5.50
2017-09-19T19:54:54.008Z,6.60
2017-09-19T19:57:23.337Z,4.87
2017-09-19T19:59:51.948Z,13.40
2017-09-19T20:02:23.998Z,6.37
2017-09-19T20:04:52.363Z,5.40
2017-09-19T20:07:21.662Z,4.87
2017-09-19T20:09:50.373Z,5.03
2017-09-19T20:12:18.770Z,5.13
2017-09-19T20:14:54.465Z,5.30
2017-09-19T20:17:22.833Z,4.90
2017-09-19T20:19:53.087Z,5.00
2017-09-19T20:22:23.701Z,4.87
2017-09-19T20:24:53.230Z,5.33
2017-09-19T20:27:25.929Z,5.07
2017-09-19T20:29:54.685Z,9.87
2017-09-19T20:32:25.131Z,5.83
2017-09-19T20:34:57.806Z,4.53
2017-09-19T20:37:26.440Z,4.97
2017-09-19T20:39:54.858Z,4.03
2017-09-19T20:42:23.244Z,5.07
2017-09-19T20:44:51.664Z,6.13
2017-09-19T20:47:20.277Z,4.80
2017-09-19T20:49:49.627Z,3.70
2017-09-19T20:52:18.024Z,4.00
2017-09-19T20:54:46.420Z,6.10
2017-09-19T20:57:16.277Z,4.40
2017-09-19T20:59:47.425Z,4.23
2017-09-19T21:02:15.962Z,5.07
2017-09-19T21:04:50.969Z,4.20
2017-09-19T21:07:25.774Z,4.37
2017-09-19T21:10:03.598Z,4.90
2017-09-19T21:12:37.561Z,4.10
2017-09-19T21:15:12.291Z,5.50
2017-09-19T21:17:47.122Z,3.70
2017-09-19T21:20:14.981Z,5.03
2017-09-19T21:22:51.771Z,5.23
2017-09-19T21:25:21.907Z,5.50
2017-09-19T21:27:51.203Z,4.90
2017-09-19T21:30:22.618Z,4.40
2017-09-19T21:32:51.029Z,5.80
2017-09-19T21:35:20.360Z,4.50
2017-09-19T21:37:50.895Z,4.67
2017-09-19T21:40:20.155Z,4.80
2017-09-19T21:42:49.542Z,4.40
2017-09-19T21:45:17.865Z,4.73
2017-09-19T21:47:46.650Z,5.30
2017-09-19T21:50:19.535Z,5.73
2017-09-19T21:52:50.022Z,5.40
2017-09-19T21:55:20.316Z,4.90
2017-09-19T21:57:49.574Z,4.83
2017-09-19T22:00:25.024Z,5.50
2017-09-19T22:02:57.409Z,4.60
2017-09-19T22:05:26.720Z,5.17
2017-09-19T22:07:57.241Z,4.70
2017-09-19T22:10:27.202Z,4.50
2017-09-19T22:12:55.533Z,4.40
2017-09-19T22:15:29.139Z,4.97
2017-09-19T22:17:58.425Z,4.60
2017-09-19T22:20:35.089Z,5.40
2017-09-19T22:23:03.464Z,5.03
2017-09-19T22:25:32.793Z,5.23
2017-09-19T22:28:02.123Z,6.40
2017-09-19T22:30:30.480Z,6.70
2017-09-19T22:32:59.795Z,5.70
2017-09-19T22:35:31.522Z,6.50
2017-09-19T22:38:01.131Z,7.37
2017-09-19T22:40:36.551Z,6.87
2017-09-19T22:43:05.274Z,6.10
2017-09-19T22:45:33.654Z,6.57
2017-09-19T22:48:04.797Z,6.17
2017-09-19T22:50:37.793Z,6.50
2017-09-19T22:53:07.989Z,5.77
2017-09-19T22:55:36.398Z,6.10
2017-09-19T22:58:09.975Z,5.60
2017-09-19T23:00:38.644Z,5.63
2017-09-19T23:03:07.036Z,5.40
2017-09-19T23:05:36.339Z,5.50
2017-09-19T23:08:10.886Z,5.63
2017-09-19T23:10:47.220Z,6.03
2017-09-19T23:13:17.480Z,7.27
2017-09-19T23:15:46.811Z,7.50
2017-09-19T23:18:17.328Z,7.87
2017-09-19T23:20:45.670Z,7.90
2017-09-19T23:23:14.074Z,7.20
2017-09-19T23:25:43.384Z,6.70
2017-09-19T23:28:11.749Z,6.10
2017-09-19T23:30:42.901Z,6.40
2017-09-19T23:33:12.236Z,5.13
2017-09-19T23:35:42.986Z,4.80
2017-09-19T23:38:17.253Z,3.63
2017-09-19T23:40:46.567Z,4.90
2017-09-19T23:43:14.918Z,5.60
2017-09-19T23:45:43.324Z,4.70
2017-09-19T23:48:12.620Z,4.70
2017-09-19T23:50:41.991Z,4.40
2017-09-19T23:53:10.353Z,5.03
2017-09-19T23:55:38.673Z,4.17
2017-09-19T23:58:07.075Z,4.43
